Time;durP1;ratioP1;P1;durP2;ratioP2;P2;SDS_P1;SDS_P2;PMS_P1;PMS_P2;Temp;Humidity;BMP_temperature;BMP_pressure;BME280_temperature;BME280_humidity;BME280_pressure;Samples;Min_cycle;Max_cycle;Signal;HPM_P1;HPM_P2
2023/05/18 00:01:58;;;;;;;4.30;3.50;;;;;;;-128.00;-1.00;-1.00;18492;297;7505105;-35
2023/05/18 00:04:24;;;;;;;12.20;3.80;;;;;;;-128.00;-1.00;-1.00;18470;295;7504482;-32
2023/05/18 00:06:55;;;;;;;18.00;3.80;;;;;;;-128.00;-1.00;-1.00;18472;295;7504579;-36
2023/05/18 00:09:25;;;;;;;11.20;3.30;;;;;;;-128.00;-1.00;-1.00;18469;297;7504388;-36
2023/05/18 00:11:51;;;;;;;13.10;5.60;;;;;;;-128.00;-1.00;-1.00;18458;346;7506125;-36
2023/05/18 00:14:17;;;;;;;14.00;3.40;;;;;;;-128.00;-1.00;-1.00;18523;295;7506871;-36
2023/05/18 00:16:43;;;;;;;4.90;4.10;;;;;;;-128.00;-1.00;-1.00;18498;295;7505000;-32
2023/05/18 00:19:08;;;;;;;7.00;3.30;;;;;;;-128.00;-1.00;-1.00;18478;335;7504481;-36
2023/05/18 00:21:35;;;;;;;8.30;3.30;;;;;;;-128.00;-1.00;-1.00;18888;330;7504573;-36
2023/05/18 00:24:01;;;;;;;12.30;3.70;;;;;;;-128.00;-1.00;-1.00;18911;295;7505383;-33
2023/05/18 00:26:27;;;;;;;9.70;3.60;;;;;;;-128.00;-1.00;-1.00;18477;295;7504692;-34
2023/05/18 00:28:53;;;;;;;9.60;3.10;;;;;;;-128.00;-1.00;-1.00;18894;289;7505645;-30
2023/05/18 00:31:20;;;;;;;9.70;4.10;;;;;;;-128.00;-1.00;-1.00;18888;295;7504913;-35
2023/05/18 00:33:46;;;;;;;9.00;3.90;;;;;;;-128.00;-1.00;-1.00;18891;289;7504187;-34
2023/05/18 00:36:12;;;;;;;8.80;3.00;;;;;;;-128.00;-1.00;-1.00;18885;295;7504852;-35
2023/05/18 00:38:38;;;;;;;4.10;2.00;;;;;;;-128.00;-1.00;-1.00;18864;295;7505146;-31
2023/05/18 00:41:04;;;;;;;14.50;2.30;;;;;;;-128.00;-1.00;-1.00;18861;295;7505333;-34
2023/05/18 00:43:30;;;;;;;7.00;3.00;;;;;;;-128.00;-1.00;-1.00;18905;318;7504677;-34
2023/05/18 00:45:57;;;;;;;7.00;1.80;;;;;;;-128.00;-1.00;-1.00;18901;295;7504999;-35
2023/05/18 00:48:23;;;;;;;10.80;3.00;;;;;;;-128.00;-1.00;-1.00;18887;287;7504933;-32
2023/05/18 00:50:50;;;;;;;6.00;2.50;;;;;;;-128.00;-1.00;-1.00;18888;289;7506372;-32
2023/05/18 00:53:15;;;;;;;10.80;2.60;;;;;;;-128.00;-1.00;-1.00;18474;295;7504947;-35
2023/05/18 00:55:41;;;;;;;7.70;2.00;;;;;;;-128.00;-1.00;-1.00;18466;295;7504770;-30
2023/05/18 00:58:08;;;;;;;5.40;2.90;;;;;;;-128.00;-1.00;-1.00;18472;297;7504454;-31
2023/05/18 01:00:36;;;;;;;6.60;1.80;;;;;;;-128.00;-1.00;-1.00;18440;298;7506605;-34
2023/05/18 01:03:03;;;;;;;13.70;2.50;;;;;;;-128.00;-1.00;-1.00;18525;318;7506160;-35
2023/05/18 01:05:28;;;;;;;3.60;2.40;;;;;;;-128.00;-1.00;-1.00;18451;285;7506453;-32
2023/05/18 01:07:55;;;;;;;3.00;1.50;;;;;;;-128.00;-1.00;-1.00;18890;297;7505229;-31
2023/05/18 01:10:21;;;;;;;11.10;2.00;;;;;;;-128.00;-1.00;-1.00;18884;295;7504602;-35
2023/05/18 01:13:00;;;;;;;7.40;2.10;;;;;;;-128.00;-1.00;-1.00;18861;295;7505691;-34
2023/05/18 01:15:31;;;;;;;3.50;1.80;;;;;;;-128.00;-1.00;-1.00;18510;299;7504480;-35
2023/05/18 01:18:13;;;;;;;9.30;2.40;;;;;;;-128.00;-1.00;-1.00;18481;295;7504600;-35
2023/05/18 01:20:56;;;;;;;3.00;2.00;;;;;;;-128.00;-1.00;-1.00;18465;295;7504570;-35
2023/05/18 01:24:02;;;;;;;7.30;1.80;;;;;;;-128.00;-1.00;-1.00;18519;295;7505950;-36
2023/05/18 01:26:28;;;;;;;2.40;1.20;;;;;;;-128.00;-1.00;-1.00;18468;297;7504971;-35
2023/05/18 01:28:55;;;;;;;11.00;1.40;;;;;;;-128.00;-1.00;-1.00;18469;318;7504627;-32
2023/05/18 01:31:21;;;;;;;19.80;3.70;;;;;;;-128.00;-1.00;-1.00;18481;295;7505822;-35
2023/05/18 01:33:47;;;;;;;4.10;1.40;;;;;;;-128.00;-1.00;-1.00;18500;295;7506211;-34
2023/05/18 01:36:13;;;;;;;7.20;3.00;;;;;;;-128.00;-1.00;-1.00;18474;295;7504671;-34
2023/05/18 01:38:39;;;;;;;5.50;1.80;;;;;;;-128.00;-1.00;-1.00;18883;295;7504289;-35
2023/05/18 01:41:20;;;;;;;5.40;2.30;;;;;;;-128.00;-1.00;-1.00;18888;295;7504374;-31
2023/05/18 01:44:11;;;;;;;8.50;1.90;;;;;;;-128.00;-1.00;-1.00;18449;295;7504252;-35
2023/05/18 01:46:53;;;;;;;4.10;1.70;;;;;;;-128.00;-1.00;-1.00;18497;295;7504567;-36
2023/05/18 01:49:35;;;;;;;7.20;2.60;;;;;;;-128.00;-1.00;-1.00;18473;295;7504590;-35
2023/05/18 01:52:03;;;;;;;4.60;2.80;;;;;;;-128.00;-1.00;-1.00;18502;295;7504194;-36
2023/05/18 01:54:29;;;;;;;12.40;1.50;;;;;;;-128.00;-1.00;-1.00;18457;295;7504387;-35
2023/05/18 01:56:55;;;;;;;3.20;1.70;;;;;;;-128.00;-1.00;-1.00;18460;295;7506477;-32
2023/05/18 01:59:22;;;;;;;10.30;1.60;;;;;;;-128.00;-1.00;-1.00;18488;295;7506075;-37
2023/05/18 02:01:48;;;;;;;6.80;2.00;;;;;;;-128.00;-1.00;-1.00;18465;283;7504743;-31
2023/05/18 02:04:14;;;;;;;5.40;1.60;;;;;;;-128.00;-1.00;-1.00;18475;346;7506336;-35
2023/05/18 02:06:40;;;;;;;4.60;1.50;;;;;;;-128.00;-1.00;-1.00;18474;295;7506404;-31
2023/05/18 02:09:06;;;;;;;6.80;2.30;;;;;;;-128.00;-1.00;-1.00;18913;295;7506186;-31
2023/05/18 02:11:32;;;;;;;9.00;2.20;;;;;;;-128.00;-1.00;-1.00;18885;335;7504692;-30
2023/05/18 02:13:59;;;;;;;7.60;2.10;;;;;;;-128.00;-1.00;-1.00;18868;295;7505143;-35
2023/05/18 02:16:25;;;;;;;2.90;1.50;;;;;;;-128.00;-1.00;-1.00;18477;296;7506048;-35
2023/05/18 02:18:51;;;;;;;2.30;1.70;;;;;;;-128.00;-1.00;-1.00;18483;295;7504415;-31
2023/05/18 02:21:17;;;;;;;5.50;2.30;;;;;;;-128.00;-1.00;-1.00;18474;295;7505056;-36
2023/05/18 02:23:43;;;;;;;4.70;1.80;;;;;;;-128.00;-1.00;-1.00;18481;295;7504634;-33
2023/05/18 02:26:09;;;;;;;7.60;2.80;;;;;;;-128.00;-1.00;-1.00;18859;295;7504643;-34
2023/05/18 02:28:38;;;;;;;12.40;2.30;;;;;;;-128.00;-1.00;-1.00;18905;295;7504500;-31
2023/05/18 02:31:08;;;;;;;13.90;2.20;;;;;;;-128.00;-1.00;-1.00;18485;289;7505834;-31
2023/05/18 02:33:38;;;;;;;5.80;1.90;;;;;;;-128.00;-1.00;-1.00;18543;318;7506203;-31
2023/05/18 02:36:07;;;;;;;4.70;2.00;;;;;;;-128.00;-1.00;-1.00;18469;295;7504880;-32
2023/05/18 02:38:35;;;;;;;8.10;1.20;;;;;;;-128.00;-1.00;-1.00;18460;295;7504912;-35
2023/05/18 02:41:01;;;;;;;6.10;1.90;;;;;;;-128.00;-1.00;-1.00;18478;295;7504874;-35
2023/05/18 02:43:27;;;;;;;8.00;2.50;;;;;;;-128.00;-1.00;-1.00;18876;318;7504412;-34
2023/05/18 02:45:54;;;;;;;6.30;1.90;;;;;;;-128.00;-1.00;-1.00;18892;295;7504881;-35
2023/05/18 02:48:20;;;;;;;13.00;2.10;;;;;;;-128.00;-1.00;-1.00;18904;346;7505195;-35
2023/05/18 02:50:49;;;;;;;8.40;1.70;;;;;;;-128.00;-1.00;-1.00;18902;295;7505465;-35
2023/05/18 02:53:15;;;;;;;3.00;1.50;;;;;;;-128.00;-1.00;-1.00;18489;295;7504995;-31
2023/05/18 02:55:42;;;;;;;7.80;1.90;;;;;;;-128.00;-1.00;-1.00;18882;295;7504781;-35
2023/05/18 02:58:08;;;;;;;10.10;1.50;;;;;;;-128.00;-1.00;-1.00;18462;298;7504720;-30
2023/05/18 03:00:34;;;;;;;14.30;2.30;;;;;;;-128.00;-1.00;-1.00;18491;295;7504684;-34
2023/05/18 03:03:01;;;;;;;8.60;1.50;;;;;;;-128.00;-1.00;-1.00;18488;303;7506041;-31
2023/05/18 03:05:28;;;;;;;3.10;1.50;;;;;;;-128.00;-1.00;-1.00;18491;295;7504505;-33
2023/05/18 03:07:53;;;;;;;4.90;2.40;;;;;;;-128.00;-1.00;-1.00;18466;295;7506296;-30
2023/05/18 03:10:20;;;;;;;4.80;2.10;;;;;;;-128.00;-1.00;-1.00;18907;295;7504206;-30
2023/05/18 03:12:46;;;;;;;5.10;1.50;;;;;;;-128.00;-1.00;-1.00;18481;346;7504434;-32
2023/05/18 03:15:12;;;;;;;2.10;1.00;;;;;;;-128.00;-1.00;-1.00;18482;295;7505213;-31
2023/05/18 03:17:40;;;;;;;6.50;1.90;;;;;;;-128.00;-1.00;-1.00;18441;298;7504841;-30
2023/05/18 03:20:06;;;;;;;1.30;1.10;;;;;;;-128.00;-1.00;-1.00;18470;295;7505210;-32
2023/05/18 03:22:32;;;;;;;2.20;1.60;;;;;;;-128.00;-1.00;-1.00;18467;295;7504566;-35
2023/05/18 03:24:58;;;;;;;6.20;3.20;;;;;;;-128.00;-1.00;-1.00;18461;295;7505916;-34
2023/05/18 03:27:25;;;;;;;14.50;2.20;;;;;;;-128.00;-1.00;-1.00;18891;295;7504856;-35
2023/05/18 03:29:56;;;;;;;2.70;1.70;;;;;;;-128.00;-1.00;-1.00;18480;295;7504985;-35
2023/05/18 03:32:23;;;;;;;2.90;1.60;;;;;;;-128.00;-1.00;-1.00;18447;296;7506172;-31
2023/05/18 03:34:51;;;;;;;16.40;2.00;;;;;;;-128.00;-1.00;-1.00;18488;346;7506323;-31
2023/05/18 03:37:17;;;;;;;15.40;1.70;;;;;;;-128.00;-1.00;-1.00;18475;295;7505700;-30
2023/05/18 03:39:43;;;;;;;6.20;2.30;;;;;;;-128.00;-1.00;-1.00;18485;322;7506051;-30
2023/05/18 03:42:09;;;;;;;5.70;2.20;;;;;;;-128.00;-1.00;-1.00;18490;346;7505070;-31
2023/05/18 03:44:35;;;;;;;14.50;2.50;;;;;;;-128.00;-1.00;-1.00;18447;330;7505811;-32
2023/05/18 03:47:00;;;;;;;9.10;1.90;;;;;;;-128.00;-1.00;-1.00;18505;302;7505921;-36
2023/05/18 03:49:28;;;;;;;12.40;1.80;;;;;;;-128.00;-1.00;-1.00;18478;295;7504782;-32
2023/05/18 03:51:55;;;;;;;8.40;1.70;;;;;;;-128.00;-1.00;-1.00;18464;346;7504467;-29
2023/05/18 03:54:21;;;;;;;10.30;1.90;;;;;;;-128.00;-1.00;-1.00;18483;335;7506102;-35
2023/05/18 03:56:47;;;;;;;4.70;1.80;;;;;;;-128.00;-1.00;-1.00;18475;322;7505311;-31
2023/05/18 03:59:13;;;;;;;6.30;2.60;;;;;;;-128.00;-1.00;-1.00;18494;318;7504742;-32
2023/05/18 04:01:43;;;;;;;4.00;1.90;;;;;;;-128.00;-1.00;-1.00;18459;295;7504424;-34
2023/05/18 04:04:16;;;;;;;5.30;2.40;;;;;;;-128.00;-1.00;-1.00;18472;343;7504953;-32
2023/05/18 04:06:45;;;;;;;4.70;2.50;;;;;;;-128.00;-1.00;-1.00;18481;295;7506409;-32
2023/05/18 04:09:13;;;;;;;2.70;1.90;;;;;;;-128.00;-1.00;-1.00;18466;297;7505960;-36
2023/05/18 04:11:40;;;;;;;6.90;3.20;;;;;;;-128.00;-1.00;-1.00;18490;295;7504639;-34
2023/05/18 04:14:07;;;;;;;9.50;3.40;;;;;;;-128.00;-1.00;-1.00;18518;335;7504992;-32
2023/05/18 04:16:33;;;;;;;8.10;2.80;;;;;;;-128.00;-1.00;-1.00;18506;339;7505961;-33
2023/05/18 04:18:59;;;;;;;4.00;2.50;;;;;;;-128.00;-1.00;-1.00;18468;295;7505116;-31
2023/05/18 04:21:25;;;;;;;23.90;2.60;;;;;;;-128.00;-1.00;-1.00;18465;334;7504025;-32
2023/05/18 04:23:50;;;;;;;8.90;2.60;;;;;;;-128.00;-1.00;-1.00;18469;295;7505115;-31
2023/05/18 04:26:18;;;;;;;23.50;3.80;;;;;;;-128.00;-1.00;-1.00;18488;318;7506054;-34
2023/05/18 04:28:48;;;;;;;9.30;3.70;;;;;;;-128.00;-1.00;-1.00;18502;295;7506698;-31
2023/05/18 04:31:16;;;;;;;8.30;3.60;;;;;;;-128.00;-1.00;-1.00;18465;295;7504494;-35
2023/05/18 04:33:45;;;;;;;6.10;2.80;;;;;;;-128.00;-1.00;-1.00;18474;295;7505280;-34
2023/05/18 04:36:11;;;;;;;7.20;1.80;;;;;;;-128.00;-1.00;-1.00;18508;295;7504845;-32
2023/05/18 04:38:37;;;;;;;8.10;2.90;;;;;;;-128.00;-1.00;-1.00;18487;346;7504908;-31
2023/05/18 05:20:03;;;;;;;7.20;3.00;;;;;;;-101.12;18.89;20058.77;19581;297;8045351;-35
2023/05/18 05:22:29;;;;;;;9.70;3.40;;;;;;;-128.00;-1.00;-1.00;18217;298;7504870;-32
2023/05/18 05:24:55;;;;;;;13.60;3.40;;;;;;;-128.00;-1.00;-1.00;18873;314;7504340;-31
2023/05/18 05:27:22;;;;;;;7.10;3.50;;;;;;;-128.00;-1.00;-1.00;18865;296;7504588;-35
2023/05/18 05:29:49;;;;;;;3.70;1.90;;;;;;;-128.00;-1.00;-1.00;18467;296;7504773;-32
2023/05/18 05:32:15;;;;;;;27.80;3.60;;;;;;;-128.00;-1.00;-1.00;18476;308;7504586;-36
2023/05/18 05:34:45;;;;;;;5.40;2.20;;;;;;;-128.00;-1.00;-1.00;18446;320;7505056;-35
2023/05/18 05:37:11;;;;;;;8.60;2.50;;;;;;;-128.00;-1.00;-1.00;18468;298;7504415;-31
2023/05/18 05:39:37;;;;;;;6.10;3.20;;;;;;;-128.00;-1.00;-1.00;18463;296;7504800;-36
2023/05/18 05:42:04;;;;;;;7.30;2.20;;;;;;;-128.00;-1.00;-1.00;18453;296;7506614;-35
2023/05/18 05:44:30;;;;;;;3.00;1.80;;;;;;;-128.00;-1.00;-1.00;18453;349;7506389;-31
2023/05/18 05:46:56;;;;;;;13.20;2.80;;;;;;;-128.00;-1.00;-1.00;18845;308;7504197;-36
2023/05/18 05:49:22;;;;;;;24.10;2.40;;;;;;;-128.00;-1.00;-1.00;18861;296;7504647;-33
2023/05/18 05:51:49;;;;;;;6.50;2.00;;;;;;;-128.00;-1.00;-1.00;18858;296;7505856;-31
2023/05/18 05:54:15;;;;;;;11.30;2.50;;;;;;;-128.00;-1.00;-1.00;18849;304;7505042;-37
2023/05/18 05:56:42;;;;;;;3.90;2.10;;;;;;;-128.00;-1.00;-1.00;18874;296;7506017;-35
2023/05/18 05:59:07;;;;;;;3.30;1.70;;;;;;;-128.00;-1.00;-1.00;18465;296;7505085;-32
2023/05/18 06:01:33;;;;;;;8.40;2.40;;;;;;;-128.00;-1.00;-1.00;18869;349;7505961;-35
2023/05/18 06:04:01;;;;;;;7.50;2.30;;;;;;;-128.00;-1.00;-1.00;18861;298;7504519;-31
2023/05/18 06:06:27;;;;;;;6.50;2.20;;;;;;;-128.00;-1.00;-1.00;18470;297;7506013;-31
2023/05/18 06:08:53;;;;;;;3.50;1.70;;;;;;;-128.00;-1.00;-1.00;18455;306;7505939;-33
2023/05/18 06:11:19;;;;;;;2.50;1.20;;;;;;;-128.00;-1.00;-1.00;18482;296;7506026;-35
2023/05/18 06:13:45;;;;;;;6.70;2.70;;;;;;;-128.00;-1.00;-1.00;18467;296;7506235;-32
2023/05/18 06:16:11;;;;;;;2.50;1.20;;;;;;;-128.00;-1.00;-1.00;18489;296;7504815;-36
2023/05/18 06:18:37;;;;;;;4.80;1.60;;;;;;;-128.00;-1.00;-1.00;18464;308;7505664;-33
2023/05/18 06:21:02;;;;;;;8.30;1.30;;;;;;;-128.00;-1.00;-1.00;18457;289;7504519;-35
2023/05/18 06:23:30;;;;;;;6.70;1.50;;;;;;;-128.00;-1.00;-1.00;18475;298;7506190;-35
2023/05/18 06:25:56;;;;;;;6.40;1.10;;;;;;;-128.00;-1.00;-1.00;18471;289;7505072;-35
2023/05/18 06:28:22;;;;;;;7.50;1.70;;;;;;;-128.00;-1.00;-1.00;18480;296;7504330;-36
2023/05/18 06:30:48;;;;;;;6.70;2.00;;;;;;;-128.00;-1.00;-1.00;18864;297;7505204;-32
2023/05/18 06:33:15;;;;;;;17.20;1.60;;;;;;;-128.00;-1.00;-1.00;18876;333;7505773;-32
2023/05/18 06:35:40;;;;;;;6.10;1.60;;;;;;;-128.00;-1.00;-1.00;18484;308;7506213;-36
2023/05/18 06:38:07;;;;;;;5.40;1.30;;;;;;;-128.00;-1.00;-1.00;18871;296;7507054;-36
2023/05/18 06:40:33;;;;;;;12.00;1.70;;;;;;;-128.00;-1.00;-1.00;18476;289;7506726;-32
2023/05/18 06:42:58;;;;;;;4.90;1.80;;;;;;;-128.00;-1.00;-1.00;18485;296;7504040;-31
2023/05/18 06:45:24;;;;;;;8.90;3.00;;;;;;;-128.00;-1.00;-1.00;18875;289;7504382;-35
2023/05/18 06:47:51;;;;;;;14.90;2.20;;;;;;;-128.00;-1.00;-1.00;18848;308;7504848;-32
2023/05/18 06:50:17;;;;;;;5.10;1.60;;;;;;;-128.00;-1.00;-1.00;18910;289;7506249;-34
2023/05/18 06:52:43;;;;;;;7.10;1.80;;;;;;;-128.00;-1.00;-1.00;18882;289;7504494;-31
2023/05/18 06:55:10;;;;;;;7.90;2.10;;;;;;;-128.00;-1.00;-1.00;18862;289;7505164;-34
2023/05/18 06:57:36;;;;;;;8.10;2.20;;;;;;;-128.00;-1.00;-1.00;18860;298;7505455;-31
2023/05/18 07:00:05;;;;;;;2.90;1.40;;;;;;;-128.00;-1.00;-1.00;18864;338;7504867;-34
2023/05/18 07:02:31;;;;;;;9.00;2.80;;;;;;;-128.00;-1.00;-1.00;18470;297;7504712;-35
2023/05/18 07:04:57;;;;;;;9.10;1.50;;;;;;;-128.00;-1.00;-1.00;18471;289;7504326;-37
2023/05/18 07:07:23;;;;;;;2.80;0.80;;;;;;;-128.00;-1.00;-1.00;18460;296;7505019;-35
2023/05/18 07:09:49;;;;;;;9.90;1.50;;;;;;;-128.00;-1.00;-1.00;18883;285;7505167;-31
2023/05/18 07:12:15;;;;;;;6.20;1.70;;;;;;;-128.00;-1.00;-1.00;18887;296;7506502;-36
2023/05/18 07:14:41;;;;;;;5.00;1.80;;;;;;;-128.00;-1.00;-1.00;18866;288;7504253;-32
2023/05/18 07:17:07;;;;;;;3.10;1.10;;;;;;;-128.00;-1.00;-1.00;18869;298;7504737;-32
2023/05/18 07:19:34;;;;;;;8.50;2.00;;;;;;;-128.00;-1.00;-1.00;18887;296;7504368;-36
2023/05/18 07:22:00;;;;;;;8.00;1.90;;;;;;;-128.00;-1.00;-1.00;18863;285;7504362;-30
2023/05/18 07:24:27;;;;;;;4.80;1.00;;;;;;;-128.00;-1.00;-1.00;18482;296;7506231;-32
2023/05/18 07:26:52;;;;;;;1.90;1.10;;;;;;;-128.00;-1.00;-1.00;18506;288;7506021;-36
2023/05/18 07:29:19;;;;;;;2.80;0.70;;;;;;;-128.00;-1.00;-1.00;18866;296;7504398;-31
2023/05/18 07:31:45;;;;;;;5.10;1.50;;;;;;;-128.00;-1.00;-1.00;18875;288;7504215;-33
2023/05/18 07:34:11;;;;;;;5.90;1.10;;;;;;;-128.00;-1.00;-1.00;18856;298;7504508;-32
2023/05/18 07:36:38;;;;;;;5.00;0.90;;;;;;;-128.00;-1.00;-1.00;18871;296;7504555;-36
2023/05/18 07:39:04;;;;;;;8.70;1.10;;;;;;;-128.00;-1.00;-1.00;18877;285;7504744;-36
2023/05/18 07:41:30;;;;;;;5.80;1.70;;;;;;;-128.00;-1.00;-1.00;18867;285;7505404;-32
2023/05/18 07:43:56;;;;;;;5.40;1.50;;;;;;;-128.00;-1.00;-1.00;18882;296;7505494;-32
2023/05/18 07:46:23;;;;;;;3.70;1.00;;;;;;;-128.00;-1.00;-1.00;18879;289;7505358;-32
2023/05/18 07:48:49;;;;;;;3.20;1.00;;;;;;;-128.00;-1.00;-1.00;18869;289;7504404;-32
2023/05/18 07:51:15;;;;;;;4.50;0.90;;;;;;;-128.00;-1.00;-1.00;18879;348;7505119;-35
2023/05/18 07:53:41;;;;;;;8.70;1.10;;;;;;;-128.00;-1.00;-1.00;18870;296;7504454;-35
2023/05/18 07:56:08;;;;;;;2.60;0.70;;;;;;;-128.00;-1.00;-1.00;18882;289;7504549;-36
2023/05/18 07:58:35;;;;;;;4.70;0.50;;;;;;;-128.00;-1.00;-1.00;18874;337;7504966;-34
2023/05/18 08:01:00;;;;;;;2.10;1.30;;;;;;;-128.00;-1.00;-1.00;18471;296;7505737;-31
2023/05/18 08:03:27;;;;;;;5.90;3.00;;;;;;;-128.00;-1.00;-1.00;18456;304;7507783;-35
2023/05/18 08:05:52;;;;;;;8.10;3.00;;;;;;;-128.00;-1.00;-1.00;18472;345;7504657;-31
2023/05/18 08:08:19;;;;;;;7.20;1.20;;;;;;;-128.00;-1.00;-1.00;18469;288;7506131;-35
2023/05/18 08:10:50;;;;;;;5.00;1.20;;;;;;;-128.00;-1.00;-1.00;18474;296;7504717;-31
2023/05/18 08:13:16;;;;;;;9.30;4.30;;;;;;;-128.00;-1.00;-1.00;18472;296;7506408;-31
2023/05/18 08:15:43;;;;;;;11.60;1.80;;;;;;;-128.00;-1.00;-1.00;18488;285;7504720;-31
2023/05/18 08:18:09;;;;;;;12.60;2.10;;;;;;;-128.00;-1.00;-1.00;18483;296;7504722;-31
2023/05/18 08:20:35;;;;;;;5.00;1.00;;;;;;;-128.00;-1.00;-1.00;18456;348;7504236;-31
2023/05/18 08:23:00;;;;;;;2.10;1.20;;;;;;;-128.00;-1.00;-1.00;18488;296;7506715;-31
2023/05/18 08:25:27;;;;;;;1.00;0.30;;;;;;;-128.00;-1.00;-1.00;18467;288;7504040;-34
2023/05/18 08:27:52;;;;;;;3.90;0.90;;;;;;;-128.00;-1.00;-1.00;18495;289;7504541;-35
2023/05/18 08:30:20;;;;;;;2.30;0.60;;;;;;;-128.00;-1.00;-1.00;18461;319;7505141;-35
2023/05/18 08:32:47;;;;;;;4.60;1.30;;;;;;;-128.00;-1.00;-1.00;18466;288;7506125;-35
2023/05/18 08:35:12;;;;;;;2.00;0.50;;;;;;;-128.00;-1.00;-1.00;18470;348;7506192;-37
2023/05/18 08:37:38;;;;;;;5.70;0.80;;;;;;;-128.00;-1.00;-1.00;18449;342;7504699;-32
2023/05/18 08:40:06;;;;;;;6.10;0.70;;;;;;;-128.00;-1.00;-1.00;18473;289;7506035;-37
2023/05/18 08:42:33;;;;;;;1.60;0.50;;;;;;;-128.00;-1.00;-1.00;18474;305;7505364;-37
2023/05/18 08:45:12;;;;;;;1.60;0.50;;;;;;;-128.00;-1.00;-1.00;18449;349;7506487;-37
2023/05/18 08:47:38;;;;;;;3.70;0.60;;;;;;;-128.00;-1.00;-1.00;18470;336;7504473;-37
2023/05/18 08:50:05;;;;;;;5.70;1.00;;;;;;;-128.00;-1.00;-1.00;18457;285;7504391;-37
2023/05/18 08:52:34;;;;;;;5.40;0.60;;;;;;;-128.00;-1.00;-1.00;18453;332;7504350;-33
2023/05/18 08:55:00;;;;;;;2.00;0.60;;;;;;;-128.00;-1.00;-1.00;18495;285;7506297;-37
2023/05/18 08:57:28;;;;;;;4.70;0.60;;;;;;;-128.00;-1.00;-1.00;18452;297;7505051;-37
2023/05/18 08:59:53;;;;;;;2.60;0.70;;;;;;;-128.00;-1.00;-1.00;18488;296;7504901;-32
2023/05/18 09:02:20;;;;;;;5.80;0.90;;;;;;;-128.00;-1.00;-1.00;18865;297;7505235;-36
2023/05/18 09:04:46;;;;;;;12.70;1.10;;;;;;;-128.00;-1.00;-1.00;18863;296;7504157;-32
2023/05/18 09:07:12;;;;;;;5.40;1.00;;;;;;;-128.00;-1.00;-1.00;18883;285;7504477;-36
2023/05/18 09:09:38;;;;;;;3.80;0.60;;;;;;;-128.00;-1.00;-1.00;18872;285;7504904;-36
2023/05/18 09:12:05;;;;;;;6.20;0.80;;;;;;;-128.00;-1.00;-1.00;18443;285;7504212;-36
2023/05/18 09:14:30;;;;;;;1.70;1.30;;;;;;;-128.00;-1.00;-1.00;18478;289;7504307;-33
2023/05/18 09:16:56;;;;;;;13.60;1.40;;;;;;;-128.00;-1.00;-1.00;18488;297;7504350;-35
2023/05/18 09:19:23;;;;;;;5.50;1.40;;;;;;;-128.00;-1.00;-1.00;18895;308;7504984;-32
2023/05/18 09:21:49;;;;;;;6.20;0.80;;;;;;;-128.00;-1.00;-1.00;18465;289;7504874;-32
2023/05/18 09:24:15;;;;;;;1.40;0.50;;;;;;;-128.00;-1.00;-1.00;18448;297;7505257;-36
2023/05/18 09:26:40;;;;;;;1.80;0.70;;;;;;;-128.00;-1.00;-1.00;18477;296;7505841;-35
2023/05/18 09:29:19;;;;;;;5.40;0.50;;;;;;;-128.00;-1.00;-1.00;18867;296;7504601;-35
2023/05/18 09:31:45;;;;;;;1.70;0.60;;;;;;;-128.00;-1.00;-1.00;18496;320;7506181;-35
2023/05/18 09:34:12;;;;;;;4.30;0.80;;;;;;;-128.00;-1.00;-1.00;18466;349;7505458;-36
2023/05/18 09:36:37;;;;;;;2.70;0.90;;;;;;;-128.00;-1.00;-1.00;18489;348;7504431;-30
2023/05/18 09:39:08;;;;;;;3.40;0.70;;;;;;;-128.00;-1.00;-1.00;18479;296;7505985;-31
2023/05/18 09:41:36;;;;;;;1.90;0.70;;;;;;;-128.00;-1.00;-1.00;18474;289;7505148;-35
2023/05/18 09:44:07;;;;;;;2.50;0.70;;;;;;;-128.00;-1.00;-1.00;18454;289;7504402;-35
2023/05/18 09:46:36;;;;;;;1.30;0.40;;;;;;;-128.00;-1.00;-1.00;18477;308;7506251;-36
2023/05/18 09:49:02;;;;;;;3.00;0.50;;;;;;;-128.00;-1.00;-1.00;18471;296;7505978;-36
2023/05/18 09:51:28;;;;;;;4.70;0.70;;;;;;;-128.00;-1.00;-1.00;18461;285;7505052;-36
2023/05/18 09:53:55;;;;;;;5.40;0.70;;;;;;;-128.00;-1.00;-1.00;18462;289;7504427;-35
2023/05/18 09:56:22;;;;;;;17.50;0.80;;;;;;;-128.00;-1.00;-1.00;18487;336;7504181;-35
2023/05/18 09:58:48;;;;;;;1.50;0.40;;;;;;;-128.00;-1.00;-1.00;18473;319;7504740;-36
2023/05/18 10:01:14;;;;;;;2.10;0.40;;;;;;;-128.00;-1.00;-1.00;18479;285;7504974;-32
2023/05/18 10:03:40;;;;;;;4.40;0.70;;;;;;;-128.00;-1.00;-1.00;18456;297;7504561;-36
2023/05/18 10:06:07;;;;;;;7.50;0.40;;;;;;;-128.00;-1.00;-1.00;18466;291;7505050;-32
2023/05/18 10:08:34;;;;;;;1.10;0.30;;;;;;;-128.00;-1.00;-1.00;18466;296;7505440;-32
2023/05/18 10:11:00;;;;;;;4.60;0.50;;;;;;;-128.00;-1.00;-1.00;18475;296;7505266;-32
2023/05/18 10:13:27;;;;;;;4.00;0.80;;;;;;;-128.00;-1.00;-1.00;18496;289;7506063;-33
2023/05/18 10:15:57;;;;;;;1.00;0.60;;;;;;;-128.00;-1.00;-1.00;18459;348;7505231;-36
2023/05/18 10:18:27;;;;;;;0.30;0.30;;;;;;;-128.00;-1.00;-1.00;18479;289;7504797;-38
2023/05/18 10:20:55;;;;;;;3.70;0.80;;;;;;;-128.00;-1.00;-1.00;18483;296;7505205;-37
2023/05/18 10:23:21;;;;;;;2.60;0.60;;;;;;;-128.00;-1.00;-1.00;18444;333;7506561;-36
2023/05/18 10:25:48;;;;;;;3.50;0.50;;;;;;;-128.00;-1.00;-1.00;18476;289;7504200;-36
2023/05/18 10:28:24;;;;;;;3.40;0.60;;;;;;;-128.00;-1.00;-1.00;18458;348;7505079;-36
2023/05/18 10:30:52;;;;;;;3.00;0.60;;;;;;;-128.00;-1.00;-1.00;18465;285;7504921;-36
2023/05/18 10:33:18;;;;;;;2.50;0.80;;;;;;;-128.00;-1.00;-1.00;18454;296;7506947;-32
2023/05/18 10:35:44;;;;;;;0.60;0.20;;;;;;;-128.00;-1.00;-1.00;18463;297;7504544;-36
2023/05/18 10:38:10;;;;;;;1.30;0.50;;;;;;;-128.00;-1.00;-1.00;18494;296;7504461;-32
2023/05/18 10:40:40;;;;;;;2.20;0.50;;;;;;;-128.00;-1.00;-1.00;18907;296;7505750;-35
2023/05/18 10:43:05;;;;;;;6.70;1.10;;;;;;;-128.00;-1.00;-1.00;18459;313;7504437;-39
2023/05/18 10:45:32;;;;;;;1.50;0.70;;;;;;;-128.00;-1.00;-1.00;18455;297;7504881;-35
2023/05/18 10:47:59;;;;;;;2.60;0.70;;;;;;;-128.00;-1.00;-1.00;18460;296;7504995;-31
2023/05/18 10:50:25;;;;;;;2.60;0.60;;;;;;;-128.00;-1.00;-1.00;18456;297;7505995;-32
2023/05/18 10:52:50;;;;;;;1.30;0.50;;;;;;;-128.00;-1.00;-1.00;18488;289;7504534;-36
2023/05/18 10:55:16;;;;;;;1.50;0.50;;;;;;;-128.00;-1.00;-1.00;18477;315;7504680;-32
2023/05/18 10:57:45;;;;;;;3.70;1.10;;;;;;;-128.00;-1.00;-1.00;18470;296;7504688;-32
2023/05/18 11:00:12;;;;;;;0.60;0.30;;;;;;;-128.00;-1.00;-1.00;18452;297;7504747;-32
2023/05/18 11:02:41;;;;;;;5.70;2.00;;;;;;;-128.00;-1.00;-1.00;18466;308;7505514;-36
2023/05/18 11:05:10;;;;;;;17.90;0.90;;;;;;;-128.00;-1.00;-1.00;18455;338;7505598;-31
2023/05/18 11:07:36;;;;;;;3.00;0.60;;;;;;;-128.00;-1.00;-1.00;18487;348;7504588;-34
2023/05/18 11:49:22;;;;;;;;;;;;;;;-99.28;7.82;20064.96;19512;299;8045543;-36
2023/05/18 11:52:05;;;;;;;4.40;0.50;;;;;;;-128.00;-1.00;-1.00;18122;341;7504419;-38
2023/05/18 11:54:37;;;;;;;1.20;0.40;;;;;;;-128.00;-1.00;-1.00;18458;299;7506518;-32
2023/05/18 11:57:02;;;;;;;1.30;0.70;;;;;;;-128.00;-1.00;-1.00;18447;287;7504550;-32
2023/05/18 11:59:36;;;;;;;22.00;1.20;;;;;;;-128.00;-1.00;-1.00;18454;299;7505077;-31
2023/05/18 12:02:02;;;;;;;1.20;0.50;;;;;;;-128.00;-1.00;-1.00;18427;351;7506280;-32
2023/05/18 12:04:28;;;;;;;7.60;0.70;;;;;;;-128.00;-1.00;-1.00;18740;299;7504467;-35
2023/05/18 12:06:56;;;;;;;5.30;0.60;;;;;;;-128.00;-1.00;-1.00;18861;351;7504896;-32
2023/05/18 12:09:25;;;;;;;2.00;0.60;;;;;;;-128.00;-1.00;-1.00;19142;299;7504999;-31
2023/05/18 12:11:51;;;;;;;2.20;0.60;;;;;;;-128.00;-1.00;-1.00;18850;299;7504581;-35
2023/05/18 12:14:18;;;;;;;0.50;0.40;;;;;;;-128.00;-1.00;-1.00;18833;299;7504615;-31
2023/05/18 12:16:45;;;;;;;1.30;0.70;;;;;;;-128.00;-1.00;-1.00;18444;299;7504788;-31
2023/05/18 12:19:10;;;;;;;1.80;0.50;;;;;;;-128.00;-1.00;-1.00;18423;300;7505116;-32
2023/05/18 12:21:36;;;;;;;1.70;0.60;;;;;;;-128.00;-1.00;-1.00;18848;299;7504374;-32
2023/05/18 12:24:03;;;;;;;5.50;0.80;;;;;;;-128.00;-1.00;-1.00;18876;299;7504237;-36
2023/05/18 12:26:31;;;;;;;5.60;0.80;;;;;;;-128.00;-1.00;-1.00;22925;299;7504926;-33
2023/05/18 12:29:00;;;;;;;2.60;0.60;;;;;;;-128.00;-1.00;-1.00;18826;287;7504514;-33
2023/05/18 12:31:26;;;;;;;1.00;0.70;;;;;;;-128.00;-1.00;-1.00;18463;299;7506476;-32
2023/05/18 12:33:53;;;;;;;5.80;1.90;;;;;;;-128.00;-1.00;-1.00;18405;299;7504230;-32
2023/05/18 12:36:19;;;;;;;1.60;0.90;;;;;;;-128.00;-1.00;-1.00;20221;311;7504524;-35
2023/05/18 12:38:49;;;;;;;5.90;2.60;;;;;;;-128.00;-1.00;-1.00;22034;287;7504794;-32
2023/05/18 12:41:22;;;;;;;0.50;0.50;;;;;;;-128.00;-1.00;-1.00;19726;287;7504727;-36
2023/05/18 12:43:48;;;;;;;2.00;0.60;;;;;;;-128.00;-1.00;-1.00;18463;299;7504935;-35
2023/05/18 12:46:14;;;;;;;6.80;0.80;;;;;;;-128.00;-1.00;-1.00;18398;323;7505942;-34
2023/05/18 12:48:45;;;;;;;1.40;0.40;;;;;;;-128.00;-1.00;-1.00;18458;298;7504690;-32
2023/05/18 12:51:18;;;;;;;0.90;0.40;;;;;;;-128.00;-1.00;-1.00;18427;299;7506119;-36